Terminal Aerodrome Forecast
Issued by NWS Pueblo, CO

Home | Current Version | Previous Version | Text Only | Print | Product List | Glossary On
Versions: 1 2 3 4 5 6 7 8 9 10 11 12 13 14 15 16 17 18 19 20 21 22 23 24 25 26 27
000
FTUS45 KPUB 270952 AAB
TAFCOS
TAF AMD
KCOS 270952Z 2710/2806 35018G28KT P6SM SCT020 SCT050
     FM271200 03013KT P6SM BKN020
     FM271500 36015KT P6SM SCT020 SCT140
     FM271800 06015G25KT P6SM VCTS SCT040 BKN060CB
     FM280000 01014KT P6SM VCSH SCT040 BKN060
     FM280300 36008KT P6SM SCT040 SCT060=

USA.gov is the U.S. government's official web portal to all federal, state and local government web resources and services.